Time;durP1;ratioP1;P1;durP2;ratioP2;P2;SDS_P1;SDS_P2;PMS_P1;PMS_P2;Temp;Humidity;BMP_temperature;BMP_pressure;BME280_temperature;BME280_humidity;BME280_pressure;Samples;Min_cycle;Max_cycle;Signal;HPM_P1;HPM_P2
2023/07/07 00:02:20;;;;;;;3.87;3.57;;;17.10;99.90;;;;;;5001406;28;20385;-84
2023/07/07 00:04:50;;;;;;;3.50;3.30;;;17.10;99.90;;;;;;5001807;28;20188;-88
2023/07/07 00:07:16;;;;;;;3.33;3.13;;;17.20;99.90;;;;;;4999738;28;20186;-85
2023/07/07 00:09:43;;;;;;;3.77;3.17;;;17.20;99.90;;;;;;5001673;28;20209;-85
2023/07/07 00:12:09;;;;;;;4.20;3.43;;;17.20;99.90;;;;;;5003694;28;20181;-85
2023/07/07 00:14:35;;;;;;;3.50;3.20;;;17.30;99.90;;;;;;5004175;28;20170;-87
2023/07/07 00:17:04;;;;;;;3.70;3.40;;;17.20;99.90;;;;;;5004803;28;20525;-86
2023/07/07 00:19:33;;;;;;;4.67;3.47;;;17.20;99.90;;;;;;5011005;28;20612;-85
2023/07/07 00:22:00;;;;;;;3.43;3.07;;;17.20;99.90;;;;;;5014012;28;20216;-86
2023/07/07 00:24:26;;;;;;;3.97;3.67;;;17.10;99.90;;;;;;5011034;28;20193;-85
2023/07/07 00:26:52;;;;;;;3.40;3.10;;;17.20;99.90;;;;;;5003846;28;20191;-85
2023/07/07 00:29:18;;;;;;;4.83;3.60;;;17.20;99.90;;;;;;5000570;28;20213;-85
2023/07/07 00:31:44;;;;;;;3.90;3.60;;;17.20;99.90;;;;;;5000222;28;20177;-85
2023/07/07 00:34:10;;;;;;;3.43;3.13;;;17.20;99.90;;;;;;4999387;28;20184;-86
2023/07/07 00:36:36;;;;;;;3.33;3.13;;;17.30;99.90;;;;;;4998955;28;20214;-87
2023/07/07 00:39:01;;;;;;;3.77;3.47;;;17.30;99.90;;;;;;5000140;28;20166;-86
2023/07/07 00:41:28;;;;;;;3.67;3.37;;;17.40;99.90;;;;;;4999116;28;20181;-87
2023/07/07 00:44:01;;;;;;;3.80;3.50;;;17.40;99.90;;;;;;5002977;28;20177;-87
2023/07/07 00:46:30;;;;;;;3.80;3.50;;;17.40;99.90;;;;;;5004067;28;20236;-86
2023/07/07 00:48:57;;;;;;;3.10;2.90;;;17.40;99.90;;;;;;4998717;28;20277;-88
2023/07/07 00:51:30;;;;;;;3.70;3.40;;;17.30;99.90;;;;;;4999102;28;20182;-87
2023/07/07 00:53:57;;;;;;;3.93;3.63;;;17.40;99.90;;;;;;4990478;28;20226;-86
2023/07/07 00:56:29;;;;;;;3.10;2.90;;;17.40;99.90;;;;;;5005792;28;20182;-87
2023/07/07 00:59:01;;;;;;;3.60;3.30;;;17.40;99.90;;;;;;4999802;28;20186;-85
2023/07/07 01:01:27;;;;;;;3.90;3.60;;;17.40;99.90;;;;;;5000589;28;20158;-86
2023/07/07 01:03:59;;;;;;;3.90;3.50;;;17.30;99.90;;;;;;5000467;28;20323;-87
2023/07/07 01:06:29;;;;;;;3.97;3.67;;;17.30;99.90;;;;;;5001758;28;20162;-86
2023/07/07 01:09:09;;;;;;;3.90;3.60;;;17.30;99.90;;;;;;5001472;28;20220;-86
2023/07/07 01:11:36;;;;;;;3.40;3.10;;;17.30;99.90;;;;;;5001332;28;20912;-84
2023/07/07 01:14:09;;;;;;;3.70;3.50;;;17.30;99.90;;;;;;5001496;28;20190;-89
2023/07/07 01:17:12;;;;;;;3.60;3.30;;;17.30;99.90;;;;;;5003190;28;20243;-86
2023/07/07 01:20:12;;;;;;;4.00;3.60;;;17.30;99.90;;;;;;5015135;28;20668;-87
2023/07/07 01:23:06;;;;;;;3.93;3.63;;;17.20;99.90;;;;;;5000436;28;20228;-87
2023/07/07 01:25:56;;;;;;;3.73;3.30;;;17.20;99.90;;;;;;5001498;28;20596;-86
2023/07/07 01:29:00;;;;;;;3.60;3.40;;;17.20;99.90;;;;;;4999080;28;20217;-88
2023/07/07 01:31:32;;;;;;;3.40;3.20;;;17.20;99.90;;;;;;4999967;28;20311;-86
2023/07/07 01:34:02;;;;;;;5.30;4.17;;;17.30;99.90;;;;;;5009515;28;20173;-86
2023/07/07 01:36:28;;;;;;;3.80;3.60;;;17.20;99.90;;;;;;5011655;28;20228;-86
2023/07/07 01:38:54;;;;;;;3.87;3.57;;;17.20;99.90;;;;;;5002315;28;20648;-86
2023/07/07 01:41:55;;;;;;;3.47;3.27;;;17.20;99.90;;;;;;5002517;28;20186;-86
2023/07/07 01:44:27;;;;;;;3.50;3.20;;;17.20;99.90;;;;;;5002330;28;20173;-87
2023/07/07 01:47:16;;;;;;;4.00;3.70;;;17.20;99.90;;;;;;5002280;28;20615;-85
2023/07/07 01:49:50;;;;;;;4.13;3.83;;;17.20;99.90;;;;;;4948531;29;20247;-86
2023/07/07 01:52:31;;;;;;;5.07;3.63;;;17.20;99.90;;;;;;4943369;29;20260;-85
2023/07/07 01:55:22;;;;;;;4.30;3.90;;;17.20;99.90;;;;;;4942376;29;20283;-88
2023/07/07 01:57:53;;;;;;;3.80;3.50;;;17.20;99.90;;;;;;4943203;29;20176;-88
2023/07/07 02:00:22;;;;;;;4.27;3.50;;;17.20;99.90;;;;;;4929972;29;20218;-87
2023/07/07 02:02:52;;;;;;;3.73;3.43;;;17.20;99.90;;;;;;4930162;29;20184;-87
2023/07/07 02:05:18;;;;;;;3.73;3.43;;;17.20;99.90;;;;;;4926528;29;20544;-87
2023/07/07 02:07:45;;;;;;;3.90;3.60;;;17.20;99.90;;;;;;4930708;29;20183;-87
2023/07/07 02:10:13;;;;;;;3.50;3.20;;;17.30;99.90;;;;;;4948588;29;20640;-89
2023/07/07 02:12:40;;;;;;;3.77;3.47;;;17.30;99.90;;;;;;4943329;29;20180;-88
2023/07/07 02:15:10;;;;;;;5.23;3.80;;;17.30;99.90;;;;;;4942750;29;20188;-88
2023/07/07 02:17:36;;;;;;;4.00;3.70;;;17.30;99.90;;;;;;4926336;29;20270;-88
2023/07/07 02:20:03;;;;;;;3.93;3.63;;;17.20;99.90;;;;;;4928138;29;20222;-88
2023/07/07 02:22:30;;;;;;;4.70;4.10;;;17.30;99.90;;;;;;4928450;29;20175;-87
2023/07/07 02:24:57;;;;;;;4.37;3.63;;;17.20;99.90;;;;;;4942635;29;20236;-88
2023/07/07 02:27:23;;;;;;;4.37;3.90;;;17.30;99.90;;;;;;4968377;28;20182;-88
2023/07/07 02:29:49;;;;;;;3.90;3.60;;;17.30;99.90;;;;;;4984942;28;20207;-88
2023/07/07 02:32:14;;;;;;;4.00;3.60;;;17.30;99.90;;;;;;4991853;28;20171;-86
2023/07/07 02:34:49;;;;;;;4.97;3.73;;;17.30;99.90;;;;;;4992708;28;20229;-88
2023/07/07 02:37:18;;;;;;;4.10;3.70;;;17.40;99.90;;;;;;4982734;28;20181;-89
2023/07/07 02:39:45;;;;;;;3.90;3.60;;;17.40;99.90;;;;;;4982561;28;20186;-89
2023/07/07 02:42:11;;;;;;;4.77;3.90;;;17.40;99.90;;;;;;4986912;28;20196;-90
2023/07/07 02:44:38;;;;;;;4.27;3.97;;;17.50;99.90;;;;;;4983850;28;20190;-91
2023/07/07 02:47:06;;;;;;;4.10;3.80;;;17.50;99.90;;;;;;4986724;28;20182;-89
2023/07/07 02:49:32;;;;;;;4.17;3.87;;;17.50;99.90;;;;;;4994711;28;20259;-87
2023/07/07 02:51:59;;;;;;;3.70;3.40;;;17.50;99.90;;;;;;4999654;28;20162;-88
2023/07/07 02:54:27;;;;;;;3.90;3.60;;;17.50;99.90;;;;;;5008178;28;20253;-89
2023/07/07 02:56:54;;;;;;;4.20;3.80;;;17.40;99.90;;;;;;5006370;28;20174;-91
2023/07/07 02:59:23;;;;;;;4.03;3.73;;;17.40;99.90;;;;;;5005207;28;20672;-88
2023/07/07 03:01:49;;;;;;;4.07;3.80;;;17.40;99.90;;;;;;5006134;28;20170;-91
2023/07/07 03:04:16;;;;;;;3.93;3.53;;;17.40;99.90;;;;;;5006330;28;20235;-87
2023/07/07 03:06:42;;;;;;;4.27;3.93;;;17.40;99.90;;;;;;5005933;28;20182;-92
2023/07/07 03:09:10;;;;;;;3.90;3.47;;;17.40;99.90;;;;;;5005819;28;20632;-91
2023/07/07 03:11:43;;;;;;;3.90;3.60;;;17.40;99.90;;;;;;4989781;28;20188;-89
2023/07/07 03:14:21;;;;;;;3.93;3.70;;;17.40;99.90;;;;;;5005679;28;20178;-88
2023/07/07 03:16:51;;;;;;;4.20;3.80;;;17.40;99.90;;;;;;5006995;28;20202;-89
2023/07/07 03:19:23;;;;;;;4.00;3.70;;;17.30;99.90;;;;;;5006183;28;20537;-90
2023/07/07 03:21:52;;;;;;;3.97;3.67;;;17.30;99.90;;;;;;5007374;28;20189;-92
2023/07/07 03:24:18;;;;;;;3.97;3.67;;;17.30;99.90;;;;;;5007113;28;20189;-89
2023/07/07 03:26:43;;;;;;;4.00;3.70;;;17.30;99.90;;;;;;5017744;28;20197;-91
2023/07/07 03:29:10;;;;;;;4.10;3.70;;;17.30;99.90;;;;;;5010536;28;20244;-92
2023/07/07 03:31:36;;;;;;;4.10;3.70;;;17.30;99.90;;;;;;4994512;28;20189;-93
2023/07/07 03:34:05;;;;;;;3.83;3.50;;;17.30;99.90;;;;;;5004296;28;20185;-90
2023/07/07 03:36:33;;;;;;;5.63;3.53;;;17.30;99.90;;;;;;5004317;28;20165;-89
2023/07/07 03:38:59;;;;;;;4.03;3.50;;;17.30;99.90;;;;;;5020775;28;20177;-91
2023/07/07 03:41:28;;;;;;;5.67;4.07;;;17.30;99.90;;;;;;5020359;28;20165;-89
2023/07/07 03:43:55;;;;;;;3.53;3.30;;;17.30;99.90;;;;;;5007647;28;20642;-87
2023/07/07 03:46:24;;;;;;;3.87;3.57;;;17.30;99.90;;;;;;5007238;28;20181;-88
2023/07/07 03:48:53;;;;;;;3.67;3.37;;;17.30;99.90;;;;;;5015099;28;20222;-91
2023/07/07 03:51:20;;;;;;;3.63;3.43;;;17.30;99.90;;;;;;5005029;28;20193;-91
2023/07/07 03:53:48;;;;;;;5.73;3.87;;;17.30;99.90;;;;;;5003901;28;20225;-88
2023/07/07 03:56:22;;;;;;;4.27;3.87;;;17.40;99.90;;;;;;5003020;28;20635;-88
2023/07/07 03:58:48;;;;;;;4.30;3.70;;;17.90;99.90;;;;;;5003084;28;20259;-90
2023/07/07 04:01:17;;;;;;;4.00;3.60;;;17.40;99.90;;;;;;5003952;28;20186;-89
2023/07/07 04:03:45;;;;;;;3.90;3.60;;;17.40;99.90;;;;;;5006357;28;20181;-88
2023/07/07 04:06:12;;;;;;;4.17;3.60;;;17.40;99.90;;;;;;5013687;28;20188;-88
2023/07/07 04:08:44;;;;;;;4.30;3.90;;;17.40;99.90;;;;;;5008513;28;20677;-90
2023/07/07 04:11:17;;;;;;;4.57;4.17;;;17.40;99.90;;;;;;5016244;28;20642;-91
2023/07/07 04:13:45;;;;;;;4.20;3.83;;;17.40;99.90;;;;;;5006011;28;20174;-92
2023/07/07 04:16:29;;;;;;;3.97;3.67;;;17.50;99.90;;;;;;5051733;23;20235;-88
2023/07/07 04:18:56;;;;;;;4.70;3.63;;;17.50;99.90;;;;;;5047384;28;20175;-87
2023/07/07 04:21:26;;;;;;;4.40;4.00;;;17.50;99.90;;;;;;5065502;28;20183;-86
2023/07/07 04:23:55;;;;;;;4.50;4.10;;;17.60;99.90;;;;;;5046798;28;20266;-84
2023/07/07 04:26:22;;;;;;;4.60;4.20;;;17.60;99.90;;;;;;5050410;28;20198;-87
2023/07/07 04:28:55;;;;;;;4.07;3.70;;;17.60;99.90;;;;;;5052745;28;20207;-86
2023/07/07 04:31:25;;;;;;;4.17;3.77;;;17.60;99.90;;;;;;5052533;28;20191;-86
2023/07/07 04:33:52;;;;;;;3.93;3.63;;;17.70;99.90;;;;;;5050476;28;20168;-85
2023/07/07 04:36:21;;;;;;;4.53;4.13;;;17.70;99.90;;;;;;5049349;28;20180;-86
2023/07/07 04:38:51;;;;;;;4.03;3.73;;;17.70;99.90;;;;;;5055557;28;20192;-87
2023/07/07 04:41:23;;;;;;;4.30;3.90;;;17.70;99.90;;;;;;5039071;28;20536;-88
2023/07/07 04:43:54;;;;;;;3.50;3.30;;;17.70;99.90;;;;;;5070933;28;20175;-86
2023/07/07 04:46:40;;;;;;;4.30;4.00;;;17.70;99.90;;;;;;5072743;28;20164;-87
2023/07/07 04:49:08;;;;;;;4.40;3.83;;;17.70;99.90;;;;;;5056149;28;20203;-87
2023/07/07 04:51:37;;;;;;;4.00;3.70;;;17.70;99.90;;;;;;5074814;28;20183;-85
2023/07/07 04:54:11;;;;;;;3.73;3.43;;;17.70;99.90;;;;;;5048758;28;20175;-84
2023/07/07 04:56:45;;;;;;;3.63;3.43;;;17.80;99.90;;;;;;5047112;28;20164;-86
2023/07/07 04:59:11;;;;;;;3.60;3.40;;;17.80;99.90;;;;;;5046711;28;20168;-86
2023/07/07 05:01:40;;;;;;;5.93;3.50;;;17.80;99.90;;;;;;5045348;28;20185;-85
2023/07/07 05:04:10;;;;;;;3.73;3.53;;;17.80;99.90;;;;;;5048738;28;20190;-85
2023/07/07 05:06:38;;;;;;;4.30;4.00;;;17.80;99.90;;;;;;5063857;28;20172;-84
2023/07/07 05:09:09;;;;;;;3.63;3.33;;;17.90;99.90;;;;;;5045607;28;20219;-87
2023/07/07 05:11:38;;;;;;;3.97;3.67;;;17.90;99.90;;;;;;5062864;28;20210;-85
2023/07/07 05:14:04;;;;;;;3.90;3.60;;;17.90;99.90;;;;;;5051288;28;20222;-84
2023/07/07 05:16:36;;;;;;;3.77;3.47;;;17.90;99.90;;;;;;5048631;28;20228;-85
2023/07/07 05:19:01;;;;;;;4.53;3.80;;;17.90;99.90;;;;;;5052044;28;20175;-84
2023/07/07 05:21:30;;;;;;;3.83;3.50;;;17.90;99.90;;;;;;5066549;28;20670;-86
2023/07/07 05:23:57;;;;;;;4.17;3.87;;;17.90;99.90;;;;;;5044881;28;20180;-85
2023/07/07 05:26:29;;;;;;;4.97;4.10;;;17.80;99.90;;;;;;5044266;28;20187;-85
2023/07/07 05:29:01;;;;;;;4.30;3.87;;;17.80;99.90;;;;;;5063930;28;20203;-85
2023/07/07 05:31:28;;;;;;;5.17;3.93;;;17.80;99.90;;;;;;5045993;28;20172;-85
2023/07/07 05:33:57;;;;;;;5.33;3.93;;;17.90;99.90;;;;;;5064806;28;20578;-85
2023/07/07 05:36:23;;;;;;;4.40;4.00;;;17.90;99.90;;;;;;5047618;28;20179;-87
2023/07/07 05:38:50;;;;;;;5.33;3.97;;;17.90;99.90;;;;;;5067413;28;20168;-86
2023/07/07 05:41:16;;;;;;;4.43;4.13;;;18.00;99.90;;;;;;5050414;28;20179;-86
2023/07/07 05:43:41;;;;;;;4.00;3.60;;;18.00;99.90;;;;;;5057558;28;20243;-87
2023/07/07 05:46:14;;;;;;;5.67;4.00;;;18.00;99.90;;;;;;5074445;28;20233;-82
2023/07/07 05:48:41;;;;;;;4.13;3.77;;;18.00;99.90;;;;;;5059544;28;20191;-82
2023/07/07 05:51:13;;;;;;;6.10;4.13;;;18.10;99.90;;;;;;5058645;28;20270;-83
2023/07/07 05:53:43;;;;;;;4.47;3.87;;;18.10;99.90;;;;;;5038139;28;20183;-83
2023/07/07 05:56:27;;;;;;;6.50;4.00;;;18.10;99.90;;;;;;5045607;28;20179;-84
2023/07/07 05:58:54;;;;;;;4.73;4.30;;;18.10;99.90;;;;;;5043707;28;20207;-83
2023/07/07 06:01:20;;;;;;;5.20;4.10;;;18.20;99.90;;;;;;5045748;28;20191;-85
2023/07/07 06:03:46;;;;;;;4.17;3.87;;;18.20;99.90;;;;;;5040339;28;20179;-82
2023/07/07 06:06:13;;;;;;;4.30;3.90;;;18.20;99.90;;;;;;5055231;28;20174;-84
2023/07/07 06:08:42;;;;;;;4.63;4.17;;;18.20;99.90;;;;;;5036788;28;20203;-83
2023/07/07 06:11:08;;;;;;;5.73;4.07;;;18.30;99.90;;;;;;5054756;28;20164;-83
2023/07/07 06:13:34;;;;;;;5.00;4.10;;;18.40;99.90;;;;;;5045296;28;20172;-84
2023/07/07 06:16:00;;;;;;;3.83;3.53;;;18.40;99.90;;;;;;5056790;28;20243;-84
2023/07/07 06:18:26;;;;;;;4.30;3.93;;;18.50;99.90;;;;;;5037783;28;20180;-86
2023/07/07 06:21:00;;;;;;;3.97;3.57;;;18.50;99.90;;;;;;5038628;28;20176;-84
2023/07/07 06:23:28;;;;;;;3.97;3.63;;;18.60;99.90;;;;;;5041951;28;20200;-85
2023/07/07 06:25:55;;;;;;;3.80;3.53;;;18.60;99.90;;;;;;5040010;28;20172;-86
2023/07/07 06:28:20;;;;;;;3.90;3.60;;;18.50;99.90;;;;;;5040141;28;20203;-83
2023/07/07 06:30:50;;;;;;;3.50;3.30;;;18.60;99.90;;;;;;5057874;28;20655;-85
2023/07/07 06:33:20;;;;;;;3.90;3.50;;;18.60;99.90;;;;;;5041316;28;20218;-84
2023/07/07 06:35:46;;;;;;;3.67;3.33;;;18.50;99.90;;;;;;5042913;28;20172;-84
2023/07/07 06:38:12;;;;;;;3.90;3.60;;;18.50;99.90;;;;;;5048816;28;20164;-84
2023/07/07 06:40:38;;;;;;;4.37;3.97;;;18.50;99.90;;;;;;5062334;28;20172;-84
2023/07/07 06:43:04;;;;;;;4.67;3.73;;;18.50;99.90;;;;;;5062551;28;20225;-85
2023/07/07 06:45:31;;;;;;;4.07;3.70;;;18.50;99.90;;;;;;5042224;28;20180;-85
2023/07/07 06:47:58;;;;;;;4.20;3.80;;;18.60;99.90;;;;;;5023881;28;20579;-84
2023/07/07 06:50:29;;;;;;;3.67;3.37;;;18.70;99.90;;;;;;5058105;28;20661;-85
2023/07/07 06:52:56;;;;;;;4.13;3.73;;;18.80;99.90;;;;;;5058155;28;20171;-85
2023/07/07 06:55:22;;;;;;;4.00;3.70;;;18.80;99.90;;;;;;5058028;28;20168;-84
2023/07/07 06:57:49;;;;;;;4.00;3.60;;;18.80;99.90;;;;;;5042575;28;20176;-85
2023/07/07 07:00:15;;;;;;;3.70;3.40;;;18.90;99.90;;;;;;5057956;28;20175;-85
2023/07/07 07:02:42;;;;;;;3.67;3.37;;;19.20;99.90;;;;;;5055045;28;20708;-84
2023/07/07 07:05:08;;;;;;;4.20;3.90;;;19.40;99.90;;;;;;5065928;28;20180;-86
2023/07/07 07:07:34;;;;;;;3.83;3.53;;;19.50;99.90;;;;;;5042913;28;20219;-85
2023/07/07 07:10:04;;;;;;;5.93;4.50;;;19.60;99.90;;;;;;5040797;28;20316;-84
2023/07/07 07:12:30;;;;;;;4.20;3.87;;;19.80;99.90;;;;;;5044724;28;20183;-86
2023/07/07 07:14:56;;;;;;;5.60;3.97;;;20.00;99.90;;;;;;5059969;28;20180;-83
2023/07/07 07:17:23;;;;;;;4.30;3.90;;;20.10;99.90;;;;;;5041826;28;20241;-85
2023/07/07 07:19:49;;;;;;;4.70;3.77;;;20.10;99.90;;;;;;5040772;28;20176;-86
2023/07/07 07:22:15;;;;;;;4.10;3.80;;;20.00;99.90;;;;;;5059861;28;20167;-84
2023/07/07 07:24:42;;;;;;;4.30;3.83;;;19.80;99.90;;;;;;5041093;28;20175;-85
2023/07/07 07:27:08;;;;;;;4.73;3.80;;;19.90;99.90;;;;;;5040199;28;20176;-86
2023/07/07 07:29:34;;;;;;;5.53;4.17;;;19.70;99.90;;;;;;5057866;28;20226;-84
2023/07/07 07:32:00;;;;;;;4.67;4.27;;;19.70;99.90;;;;;;5040367;28;20172;-85
2023/07/07 07:34:30;;;;;;;4.40;3.83;;;19.60;99.90;;;;;;5039525;28;20650;-84
2023/07/07 07:37:01;;;;;;;5.03;3.90;;;19.80;99.90;;;;;;5039206;28;20639;-84
2023/07/07 07:39:29;;;;;;;5.23;4.00;;;20.10;99.90;;;;;;5040702;28;20180;-84
2023/07/07 07:41:56;;;;;;;6.33;4.37;;;20.10;99.90;;;;;;5058594;28;20168;-84
2023/07/07 07:44:23;;;;;;;5.90;4.30;;;20.10;99.90;;;;;;5057885;28;20203;-86
2023/07/07 07:46:51;;;;;;;5.73;4.27;;;20.10;99.90;;;;;;5039747;28;20175;-87
2023/07/07 07:49:17;;;;;;;4.57;4.10;;;20.20;99.90;;;;;;5042136;28;20743;-85
2023/07/07 07:51:43;;;;;;;4.20;3.77;;;20.40;99.90;;;;;;5042924;28;20674;-86
2023/07/07 07:54:11;;;;;;;4.50;4.10;;;20.70;99.90;;;;;;5060485;28;20176;-85
2023/07/07 07:56:38;;;;;;;4.80;3.73;;;20.80;99.90;;;;;;5045039;28;20171;-87
2023/07/07 07:59:05;;;;;;;4.33;4.03;;;21.00;99.90;;;;;;5053575;28;20184;-84
2023/07/07 08:01:32;;;;;;;4.10;3.80;;;21.00;99.90;;;;;;5061986;28;20174;-85
2023/07/07 08:03:58;;;;;;;5.80;4.00;;;21.20;99.90;;;;;;5075694;28;20218;-86
2023/07/07 08:06:23;;;;;;;4.80;3.90;;;21.30;99.90;;;;;;5043112;28;20582;-86
2023/07/07 08:08:49;;;;;;;5.00;3.93;;;21.30;99.90;;;;;;5039965;28;20207;-86
2023/07/07 08:11:19;;;;;;;4.13;3.40;;;21.00;99.90;;;;;;5039019;28;20171;-85
2023/07/07 08:13:45;;;;;;;4.03;3.73;;;20.90;99.90;;;;;;5039322;28;20253;-85
2023/07/07 08:16:12;;;;;;;3.73;3.43;;;21.10;99.90;;;;;;5036199;28;20595;-85
2023/07/07 08:18:39;;;;;;;3.37;3.07;;;21.20;99.90;;;;;;5043852;28;20164;-85
2023/07/07 08:21:05;;;;;;;4.03;3.47;;;21.40;99.90;;;;;;5044431;28;20200;-85
2023/07/07 08:23:32;;;;;;;3.60;3.30;;;21.70;99.90;;;;;;5041000;28;20172;-86
2023/07/07 08:25:59;;;;;;;3.53;3.27;;;21.50;99.90;;;;;;5039338;28;20177;-86
2023/07/07 08:28:25;;;;;;;3.60;3.30;;;21.40;99.90;;;;;;5055788;28;20228;-86
2023/07/07 08:30:50;;;;;;;4.57;3.70;;;21.30;99.90;;;;;;5043878;28;20231;-86
2023/07/07 08:33:18;;;;;;;3.93;3.63;;;21.40;99.90;;;;;;5041134;28;20176;-85
2023/07/07 08:35:44;;;;;;;3.63;3.30;;;21.40;99.90;;;;;;5039353;28;20177;-86
2023/07/07 08:38:10;;;;;;;3.43;3.20;;;21.40;99.90;;;;;;5045157;28;20173;-85
2023/07/07 08:40:50;;;;;;;3.57;3.27;;;21.30;99.90;;;;;;5055216;28;20203;-87
2023/07/07 08:43:17;;;;;;;3.60;3.30;;;21.50;99.90;;;;;;5042793;28;20217;-86
2023/07/07 08:46:05;;;;;;;3.20;3.00;;;21.60;99.90;;;;;;5040477;28;20177;-86
2023/07/07 08:48:54;;;;;;;3.30;3.10;;;21.80;99.90;;;;;;5030878;28;20703;-86
2023/07/07 08:51:26;;;;;;;3.00;2.80;;;21.70;99.90;;;;;;5037590;28;20548;-86
2023/07/07 08:54:26;;;;;;;3.23;3.03;;;21.70;99.90;;;;;;5038887;28;20172;-85
2023/07/07 08:57:03;;;;;;;3.53;2.73;;;22.00;99.90;;;;;;5037878;28;20177;-84
2023/07/07 08:59:38;;;;;;;3.60;3.13;;;22.10;99.90;;;;;;5036333;28;20215;-85
2023/07/07 09:02:40;;;;;;;3.20;3.00;;;21.90;99.90;;;;;;5037360;28;20628;-86
2023/07/07 09:05:53;;;;;;;3.30;3.10;;;21.80;99.90;;;;;;5035972;28;20177;-86
2023/07/07 09:08:39;;;;;;;3.17;2.90;;;22.00;99.90;;;;;;5038086;28;20192;-86
2023/07/07 09:11:25;;;;;;;3.10;2.90;;;21.90;99.90;;;;;;5036516;28;20263;-86
2023/07/07 09:13:54;;;;;;;2.83;2.70;;;22.00;99.90;;;;;;5042641;28;20198;-86
2023/07/07 09:16:32;;;;;;;3.27;2.97;;;22.10;99.90;;;;;;5041670;28;20231;-87
2023/07/07 09:19:06;;;;;;;4.90;3.07;;;22.30;99.90;;;;;;5038710;28;20255;-84
2023/07/07 09:22:03;;;;;;;3.30;3.10;;;22.50;99.90;;;;;;5039850;28;20164;-87
2023/07/07 09:24:35;;;;;;;3.03;2.80;;;22.60;99.90;;;;;;5039148;28;20184;-86
2023/07/07 09:27:14;;;;;;;3.37;3.07;;;22.60;99.90;;;;;;5040707;28;20177;-85
2023/07/07 09:29:41;;;;;;;3.10;2.65;;;22.60;99.90;;;;;;5020372;28;20683;-86
2023/07/07 09:32:21;;;;;;;3.70;3.22;;;22.60;99.90;;;;;;5038942;28;20176;-85
2023/07/07 09:34:47;;;;;;;2.95;2.75;;;22.80;99.90;;;;;;5021133;28;20248;-86
2023/07/07 09:37:28;;;;;;;3.42;3.10;;;23.00;99.90;;;;;;5036011;28;20218;-86
2023/07/07 09:40:02;;;;;;;3.33;2.97;;;23.00;99.90;;;;;;5039809;28;20231;-85
2023/07/07 09:42:46;;;;;;;3.10;2.90;;;22.90;99.90;;;;;;5037872;28;20525;-86
2023/07/07 09:45:30;;;;;;;2.70;2.50;;;22.80;99.90;;;;;;5036592;28;20617;-85
2023/07/07 09:48:13;;;;;;;3.00;2.80;;;22.90;99.90;;;;;;5034950;28;20266;-85
2023/07/07 09:51:03;;;;;;;2.83;2.60;;;23.00;99.90;;;;;;5051941;22;20697;-92
2023/07/07 09:53:37;;;;;;;2.88;2.67;;;22.90;99.90;;;;;;4997499;28;20154;-90
2023/07/07 09:56:04;;;;;;;2.97;2.78;;;22.90;99.90;;;;;;5012917;28;20200;-89
2023/07/07 09:58:33;;;;;;;2.70;2.50;;;23.00;99.90;;;;;;5012344;28;20177;-89
2023/07/07 10:01:01;;;;;;;2.55;2.35;;;23.00;99.90;;;;;;4990751;28;20630;-90
2023/07/07 10:03:41;;;;;;;2.42;2.33;;;23.10;99.90;;;;;;4989466;28;20271;-90
2023/07/07 10:06:28;;;;;;;2.90;2.70;;;23.20;99.90;;;;;;5003168;28;20169;-88
2023/07/07 10:08:54;;;;;;;3.08;2.78;;;23.10;99.90;;;;;;4995274;28;20202;-88
2023/07/07 10:11:24;;;;;;;2.67;2.50;;;23.10;99.90;;;;;;5010335;28;20170;-90
2023/07/07 10:13:52;;;;;;;3.10;2.90;;;23.10;99.90;;;;;;4991733;28;20181;-88
2023/07/07 10:16:48;;;;;;;2.83;2.60;;;22.90;99.90;;;;;;5022284;28;20225;-90
2023/07/07 10:19:16;;;;;;;2.83;2.60;;;22.90;99.90;;;;;;4972459;28;20178;-89
2023/07/07 10:21:52;;;;;;;2.42;2.22;;;23.00;99.90;;;;;;5003104;28;20147;-87
2023/07/07 10:24:18;;;;;;;3.30;3.00;;;23.00;99.90;;;;;;5015271;28;20174;-89
2023/07/07 10:26:47;;;;;;;3.13;2.83;;;23.10;99.90;;;;;;4986038;28;20193;-89
2023/07/07 10:29:23;;;;;;;3.15;2.95;;;23.10;99.90;;;;;;5000022;28;20216;-91
2023/07/07 10:31:51;;;;;;;2.95;2.75;;;23.20;99.90;;;;;;4982929;28;20261;-88
2023/07/07 10:34:36;;;;;;;2.60;2.47;;;23.20;99.90;;;;;;5000250;28;20215;-88
2023/07/07 10:37:02;;;;;;;3.30;3.00;;;23.10;99.90;;;;;;4983626;28;20185;-89
2023/07/07 10:39:30;;;;;;;2.72;2.53;;;23.10;99.90;;;;;;5000186;28;20301;-87
2023/07/07 10:41:56;;;;;;;2.75;2.55;;;23.20;99.90;;;;;;5000248;28;20205;-90
2023/07/07 10:44:27;;;;;;;2.85;2.65;;;23.30;99.90;;;;;;4982166;28;20186;-90
2023/07/07 10:46:53;;;;;;;2.83;2.60;;;23.40;99.90;;;;;;4985072;28;20209;-89
2023/07/07 10:49:24;;;;;;;3.38;3.08;;;23.50;99.90;;;;;;4985170;28;20205;-89
2023/07/07 10:51:49;;;;;;;2.78;2.58;;;23.30;99.90;;;;;;4997089;28;20248;-88
2023/07/07 10:54:47;;;;;;;3.45;3.17;;;23.30;99.90;;;;;;4999263;28;20178;-91
2023/07/07 10:57:19;;;;;;;3.00;2.80;;;23.40;99.90;;;;;;4990932;28;20266;-89
2023/07/07 11:00:02;;;;;;;2.90;2.70;;;23.50;99.90;;;;;;4998967;28;20166;-89
2023/07/07 11:02:37;;;;;;;3.42;2.70;;;23.60;99.90;;;;;;4999358;28;20188;-88
2023/07/07 11:05:30;;;;;;;3.30;3.10;;;23.70;99.90;;;;;;4998278;28;20256;-88
2023/07/07 11:08:20;;;;;;;3.30;3.00;;;23.70;99.90;;;;;;4997828;28;20224;-91
2023/07/07 11:11:03;;;;;;;2.67;2.47;;;23.80;99.90;;;;;;4997912;28;20654;-88
2023/07/07 11:14:16;;;;;;;2.95;2.80;;;23.80;99.90;;;;;;5000071;28;20208;-90
2023/07/07 11:16:53;;;;;;;3.00;2.80;;;23.90;99.90;;;;;;4939469;29;20184;-88
2023/07/07 11:19:51;;;;;;;3.10;2.90;;;24.00;99.90;;;;;;4923364;29;20187;-89
2023/07/07 11:22:54;;;;;;;3.05;2.85;;;24.00;99.90;;;;;;4940007;29;20177;-89
2023/07/07 11:25:54;;;;;;;3.42;3.17;;;24.00;99.90;;;;;;4912454;29;20290;-89
2023/07/07 11:29:07;;;;;;;3.17;2.97;;;24.00;99.90;;;;;;4921753;29;20676;-91
2023/07/07 11:31:51;;;;;;;3.10;2.90;;;24.00;99.90;;;;;;4882804;29;20245;-89
2023/07/07 11:34:28;;;;;;;5.63;3.33;;;24.20;99.90;;;;;;4867845;29;20194;-89
2023/07/07 11:37:11;;;;;;;3.20;2.88;;;24.20;99.90;;;;;;4883999;29;20177;-89
2023/07/07 11:39:39;;;;;;;3.28;3.08;;;24.20;99.90;;;;;;4868317;29;20190;-87
2023/07/07 11:42:22;;;;;;;3.50;3.20;;;24.20;99.90;;;;;;4887008;29;20265;-90
2023/07/07 11:45:13;;;;;;;3.28;2.97;;;24.40;99.90;;;;;;4889448;29;20262;-86
2023/07/07 11:47:57;;;;;;;4.95;3.40;;;24.40;99.90;;;;;;4886799;29;20194;-89
2023/07/07 11:50:25;;;;;;;3.22;3.03;;;24.40;99.90;;;;;;4869809;29;20197;-88
2023/07/07 11:53:22;;;;;;;3.60;3.30;;;24.60;99.90;;;;;;4930634;29;20195;-89
2023/07/07 11:56:03;;;;;;;3.10;2.90;;;24.60;99.90;;;;;;4954354;28;20187;-89
2023/07/07 11:59:08;;;;;;;3.63;3.33;;;24.70;99.90;;;;;;4953911;29;20232;-89
2023/07/07 12:01:47;;;;;;;3.10;2.85;;;24.70;99.90;;;;;;4959332;29;20198;-86
2023/07/07 12:04:27;;;;;;;3.38;3.17;;;24.70;99.90;;;;;;4950266;29;20222;-88
2023/07/07 12:07:02;;;;;;;3.00;2.80;;;24.80;99.90;;;;;;4971982;28;20192;-87
2023/07/07 12:09:37;;;;;;;3.85;3.55;;;25.10;99.90;;;;;;4999073;28;20568;-89
2023/07/07 12:12:17;;;;;;;3.80;3.50;;;24.80;99.90;;;;;;4998634;28;20591;-89
2023/07/07 12:15:08;;;;;;;3.90;3.60;;;24.90;99.90;;;;;;4999661;28;20173;-88
2023/07/07 12:17:39;;;;;;;3.33;3.05;;;24.90;99.90;;;;;;5001124;28;20220;-89
2023/07/07 12:20:17;;;;;;;3.20;2.78;;;24.90;99.70;;;;;;5003591;28;20181;-90
2023/07/07 12:22:45;;;;;;;5.60;3.20;;;24.90;99.00;;;;;;5003813;28;20181;-89
2023/07/07 12:25:35;;;;;;;2.95;2.75;;;24.90;98.50;;;;;;5012318;28;20196;-89
2023/07/07 12:28:02;;;;;;;3.30;3.10;;;24.70;98.80;;;;;;4997383;28;20232;-87
2023/07/07 12:30:31;;;;;;;3.58;3.30;;;24.80;98.80;;;;;;5010830;28;20197;-88
2023/07/07 12:32:58;;;;;;;3.92;3.13;;;24.90;99.50;;;;;;5013075;28;20189;-87
2023/07/07 12:35:42;;;;;;;3.03;2.72;;;25.00;98.40;;;;;;5013280;28;20182;-89
2023/07/07 12:38:31;;;;;;;3.25;3.05;;;25.00;98.10;;;;;;5008471;28;20226;-89
2023/07/07 12:41:04;;;;;;;3.38;3.13;;;25.10;97.90;;;;;;5007903;28;20189;-89
2023/07/07 12:43:49;;;;;;;3.38;3.08;;;25.10;97.80;;;;;;5003447;28;20198;-89
2023/07/07 12:46:23;;;;;;;3.97;3.13;;;25.10;98.00;;;;;;5001561;28;20185;-89
2023/07/07 12:48:54;;;;;;;3.22;2.97;;;25.10;97.70;;;;;;5012169;28;20204;-90
2023/07/07 12:51:22;;;;;;;2.92;2.72;;;25.20;98.10;;;;;;5012918;28;20222;-89
2023/07/07 12:53:53;;;;;;;2.95;2.75;;;25.20;95.80;;;;;;4985845;28;20280;-88
2023/07/07 12:56:20;;;;;;;2.97;2.78;;;25.20;95.70;;;;;;4983038;28;20174;-88
2023/07/07 12:58:55;;;;;;;3.05;2.85;;;25.30;97.00;;;;;;4980401;28;20905;-89
2023/07/07 13:01:34;;;;;;;3.47;3.17;;;25.40;97.10;;;;;;4999589;28;20165;-89
2023/07/07 13:04:08;;;;;;;3.10;2.90;;;25.50;96.20;;;;;;4981892;28;20165;-89
2023/07/07 13:06:45;;;;;;;4.43;2.75;;;25.60;95.30;;;;;;4997922;28;20694;-89
2023/07/07 13:09:16;;;;;;;3.88;3.20;;;25.60;94.90;;;;;;4981224;28;20225;-89
2023/07/07 13:11:51;;;;;;;4.07;3.22;;;25.60;95.30;;;;;;4982944;28;20201;-88
2023/07/07 13:14:41;;;;;;;3.03;2.83;;;25.60;94.50;;;;;;4982024;28;20189;-87
2023/07/07 13:17:22;;;;;;;3.50;3.20;;;25.60;93.50;;;;;;4981916;28;20232;-90